Terminal Aerodrome Forecast
Issued by NWS

Home | Current Version | Previous Version | Text Only | Print | Product List | Glossary On
Versions: 1 2 3 4 5 6 7 8 9 10 11 12 13
000
FTUS45 KABQ 032342
TAFFMN
TAF
KFMN 032342Z 0400/0424 22006KT P6SM SKC
     FM040500 10006KT P6SM BKN090
     FM041000 12006KT P6SM VCSH BKN080
     FM041800 27010G18KT P6SM VCTS SCT070CB BKN100=

USA.gov is the U.S. government's official web portal to all federal, state and local government web resources and services.